Time;durP1;ratioP1;P1;durP2;ratioP2;P2;SDS_P1;SDS_P2;PMS_P1;PMS_P2;Temp;Humidity;BMP_temperature;BMP_pressure;BME280_temperature;BME280_humidity;BME280_pressure;Samples;Min_cycle;Max_cycle;Signal;HPM_P1;HPM_P2
2021/08/06 00:00:06;;;;;;;11.60;3.23;;;;;;;;;;5136403;27;20288;-83
2021/08/06 00:02:34;;;;;;;13.43;3.37;;;;;;;;;;5136014;27;20232;-83
2021/08/06 00:05:01;;;;;;;13.17;3.03;;;;;;;;;;5136266;27;20192;-84
2021/08/06 00:07:29;;;;;;;13.83;3.23;;;;;;;;;;5137331;27;20268;-83
2021/08/06 00:09:56;;;;;;;11.63;2.83;;;;;;;;;;5136812;27;20721;-83
2021/08/06 00:12:23;;;;;;;10.30;2.73;;;;;;;;;;5137126;27;20335;-82
2021/08/06 00:14:52;;;;;;;9.70;2.73;;;;;;;;;;5137256;27;20303;-84
2021/08/06 00:17:20;;;;;;;11.73;3.17;;;;;;;;;;5136665;27;20199;-84
2021/08/06 00:19:47;;;;;;;7.20;2.70;;;;;;;;;;5135757;27;20213;-84
2021/08/06 00:22:14;;;;;;;9.90;3.27;;;;;;;;;;5136842;27;20279;-83
2021/08/06 00:24:41;;;;;;;8.70;2.40;;;;;;;;;;5137018;27;20226;-83
2021/08/06 00:27:09;;;;;;;11.20;2.53;;;;;;;;;;5135740;27;20235;-84
2021/08/06 00:29:36;;;;;;;13.03;2.60;;;;;;;;;;5135693;27;20635;-83
2021/08/06 00:32:05;;;;;;;11.43;2.77;;;;;;;;;;5136080;27;20283;-83
2021/08/06 00:34:32;;;;;;;12.53;2.60;;;;;;;;;;5137066;27;20313;-84
2021/08/06 00:36:59;;;;;;;8.80;3.00;;;;;;;;;;5136759;27;20236;-83
2021/08/06 00:39:27;;;;;;;9.37;2.63;;;;;;;;;;5136416;27;20668;-83
2021/08/06 00:41:54;;;;;;;13.83;3.20;;;;;;;;;;5136464;27;20189;-84
2021/08/06 00:44:21;;;;;;;11.03;2.70;;;;;;;;;;5136545;27;20239;-84
2021/08/06 00:46:48;;;;;;;11.07;2.50;;;;;;;;;;5136575;27;20201;-84
2021/08/06 00:49:17;;;;;;;11.90;3.07;;;;;;;;;;5135199;27;20289;-83
2021/08/06 00:51:44;;;;;;;10.20;3.00;;;;;;;;;;5115802;27;20236;-83
2021/08/06 00:54:12;;;;;;;11.93;2.60;;;;;;;;;;5115381;28;20261;-83
2021/08/06 00:56:39;;;;;;;13.77;3.23;;;;;;;;;;5114933;28;20280;-83
2021/08/06 00:59:07;;;;;;;13.93;2.70;;;;;;;;;;5115459;28;20288;-83
2021/08/06 01:01:35;;;;;;;12.13;2.73;;;;;;;;;;5114164;28;20594;-84
2021/08/06 01:04:06;;;;;;;10.80;2.73;;;;;;;;;;5115248;28;20276;-84
2021/08/06 01:06:38;;;;;;;11.37;2.80;;;;;;;;;;5114919;28;20202;-83
2021/08/06 01:09:12;;;;;;;16.03;2.80;;;;;;;;;;5114723;28;20811;-83
2021/08/06 01:11:41;;;;;;;10.67;2.70;;;;;;;;;;5116169;27;20201;-83
2021/08/06 01:14:11;;;;;;;11.47;2.60;;;;;;;;;;5114895;28;20201;-84
2021/08/06 01:16:39;;;;;;;11.87;2.73;;;;;;;;;;5115822;28;20277;-84
2021/08/06 01:19:09;;;;;;;11.33;2.87;;;;;;;;;;5116295;28;20242;-83
2021/08/06 01:21:42;;;;;;;9.90;2.27;;;;;;;;;;5114824;27;20198;-84
2021/08/06 01:24:12;;;;;;;8.87;2.40;;;;;;;;;;5115782;28;20265;-83
2021/08/06 01:26:41;;;;;;;12.43;2.33;;;;;;;;;;5115970;28;20619;-83
2021/08/06 01:29:08;;;;;;;7.43;2.50;;;;;;;;;;5114987;28;20252;-83
2021/08/06 01:31:35;;;;;;;8.63;2.80;;;;;;;;;;5114543;28;20688;-83
2021/08/06 01:34:03;;;;;;;10.00;2.13;;;;;;;;;;5114475;28;20198;-84
2021/08/06 01:36:30;;;;;;;8.47;2.23;;;;;;;;;;5114916;27;20252;-83
2021/08/06 01:38:57;;;;;;;10.63;2.30;;;;;;;;;;5114826;28;20288;-83
2021/08/06 01:41:29;;;;;;;7.47;2.17;;;;;;;;;;5113619;28;20221;-83
2021/08/06 01:44:03;;;;;;;10.67;2.37;;;;;;;;;;5114491;28;20546;-83
2021/08/06 01:46:32;;;;;;;7.93;1.97;;;;;;;;;;5113961;28;20617;-82
2021/08/06 01:49:03;;;;;;;9.60;1.93;;;;;;;;;;5115483;28;20286;-83
2021/08/06 01:51:32;;;;;;;10.03;2.10;;;;;;;;;;5115335;28;20365;-83
2021/08/06 01:54:00;;;;;;;7.83;1.97;;;;;;;;;;5115110;28;20229;-83
2021/08/06 01:56:28;;;;;;;9.73;2.10;;;;;;;;;;5113920;28;20308;-84
2021/08/06 01:58:58;;;;;;;9.43;1.97;;;;;;;;;;5113832;28;20289;-83
2021/08/06 02:01:26;;;;;;;7.57;2.13;;;;;;;;;;5114240;28;20208;-83
2021/08/06 02:03:53;;;;;;;9.47;2.07;;;;;;;;;;5113844;28;20647;-83
2021/08/06 02:06:21;;;;;;;15.07;2.30;;;;;;;;;;5114309;28;20244;-83
2021/08/06 02:08:48;;;;;;;12.10;2.63;;;;;;;;;;5114226;28;20276;-84
2021/08/06 02:11:18;;;;;;;12.17;2.87;;;;;;;;;;5114618;28;20209;-84
2021/08/06 02:13:46;;;;;;;10.73;2.83;;;;;;;;;;5114258;28;20284;-84
2021/08/06 02:16:13;;;;;;;10.50;2.60;;;;;;;;;;5114841;28;20317;-83
2021/08/06 02:18:42;;;;;;;11.90;2.77;;;;;;;;;;5114709;28;20285;-83
2021/08/06 02:21:11;;;;;;;11.07;2.57;;;;;;;;;;5115151;28;20300;-83
2021/08/06 02:23:38;;;;;;;10.37;2.50;;;;;;;;;;5114162;28;20276;-82
2021/08/06 02:26:06;;;;;;;9.43;2.67;;;;;;;;;;5114993;28;20277;-83
2021/08/06 02:28:34;;;;;;;8.27;2.50;;;;;;;;;;5115082;28;20288;-83
2021/08/06 02:31:01;;;;;;;8.70;2.33;;;;;;;;;;5114230;28;20288;-83
2021/08/06 02:33:29;;;;;;;8.93;2.20;;;;;;;;;;5114036;28;20194;-83
2021/08/06 02:35:58;;;;;;;14.33;2.53;;;;;;;;;;5113495;28;20320;-83
2021/08/06 02:38:27;;;;;;;9.63;2.40;;;;;;;;;;5114081;28;20202;-83
2021/08/06 02:40:55;;;;;;;8.37;2.23;;;;;;;;;;5114661;28;20863;-83
2021/08/06 02:43:22;;;;;;;7.20;1.73;;;;;;;;;;5113504;28;20202;-84
2021/08/06 02:45:50;;;;;;;11.17;2.40;;;;;;;;;;5113829;28;20225;-83
2021/08/06 02:48:17;;;;;;;7.67;2.40;;;;;;;;;;5113889;28;20225;-83
2021/08/06 02:50:45;;;;;;;9.33;2.10;;;;;;;;;;5114452;28;20248;-83
2021/08/06 02:53:14;;;;;;;7.93;2.20;;;;;;;;;;5113969;28;20320;-83
2021/08/06 02:55:41;;;;;;;9.17;2.43;;;;;;;;;;5114088;28;20264;-84
2021/08/06 02:58:08;;;;;;;6.10;1.77;;;;;;;;;;5114007;28;20213;-83
2021/08/06 03:00:36;;;;;;;9.47;2.20;;;;;;;;;;5113792;27;20205;-83
2021/08/06 03:03:03;;;;;;;9.13;2.27;;;;;;;;;;5112887;28;20244;-83
2021/08/06 03:05:30;;;;;;;8.30;1.93;;;;;;;;;;5113693;28;20233;-84
2021/08/06 03:07:57;;;;;;;8.40;2.00;;;;;;;;;;5114418;28;20289;-83
2021/08/06 03:10:26;;;;;;;8.53;1.90;;;;;;;;;;5113927;28;20289;-83
2021/08/06 03:12:53;;;;;;;11.30;2.20;;;;;;;;;;5114655;28;20289;-83
2021/08/06 03:15:21;;;;;;;9.10;2.30;;;;;;;;;;5115236;28;20290;-83
2021/08/06 03:17:49;;;;;;;9.53;1.93;;;;;;;;;;5114457;28;20197;-83
2021/08/06 03:20:18;;;;;;;9.30;2.33;;;;;;;;;;5115265;28;20229;-83
2021/08/06 03:22:45;;;;;;;7.93;1.73;;;;;;;;;;5113715;28;20206;-83
2021/08/06 03:25:13;;;;;;;10.73;2.20;;;;;;;;;;5114051;28;20767;-84
2021/08/06 03:27:42;;;;;;;10.57;2.00;;;;;;;;;;5117225;28;20284;-83
2021/08/06 03:30:10;;;;;;;6.63;2.07;;;;;;;;;;5117488;28;20282;-83
2021/08/06 03:32:38;;;;;;;8.50;2.33;;;;;;;;;;5118037;28;20285;-84
2021/08/06 03:35:06;;;;;;;8.43;1.97;;;;;;;;;;5117208;28;20225;-84
2021/08/06 03:37:33;;;;;;;10.37;2.20;;;;;;;;;;5117343;27;20276;-83
2021/08/06 03:40:00;;;;;;;5.10;1.40;;;;;;;;;;5117584;28;20285;-84
2021/08/06 03:42:28;;;;;;;7.80;2.00;;;;;;;;;;5118553;28;20370;-83
2021/08/06 03:44:56;;;;;;;6.43;1.70;;;;;;;;;;5118166;28;20236;-84
2021/08/06 03:47:23;;;;;;;7.23;1.50;;;;;;;;;;5117434;28;20277;-84
2021/08/06 03:49:51;;;;;;;8.33;1.70;;;;;;;;;;5117967;28;20360;-83
2021/08/06 03:52:18;;;;;;;4.23;1.60;;;;;;;;;;5117551;27;20225;-84
2021/08/06 03:54:45;;;;;;;8.27;1.70;;;;;;;;;;5115173;28;20229;-83
2021/08/06 03:57:12;;;;;;;6.07;1.57;;;;;;;;;;5114785;28;20217;-84
2021/08/06 03:59:40;;;;;;;7.33;1.83;;;;;;;;;;5115051;27;20221;-83
2021/08/06 04:02:08;;;;;;;9.40;1.70;;;;;;;;;;5114905;27;20281;-83
2021/08/06 04:04:35;;;;;;;5.70;1.90;;;;;;;;;;5115231;28;20225;-83
2021/08/06 04:07:04;;;;;;;9.60;1.97;;;;;;;;;;5114852;28;20310;-83
2021/08/06 04:09:31;;;;;;;7.70;1.70;;;;;;;;;;5114956;28;20661;-84
2021/08/06 04:11:58;;;;;;;7.07;1.87;;;;;;;;;;5114752;28;20276;-84
2021/08/06 04:14:25;;;;;;;6.70;1.60;;;;;;;;;;5114549;28;20235;-83
2021/08/06 04:16:53;;;;;;;9.20;2.03;;;;;;;;;;5114415;28;20257;-82
2021/08/06 04:19:22;;;;;;;6.73;1.97;;;;;;;;;;5114451;28;20203;-84
2021/08/06 04:21:49;;;;;;;7.40;1.97;;;;;;;;;;5114693;28;20229;-84
2021/08/06 04:24:16;;;;;;;8.43;1.87;;;;;;;;;;5114815;28;20190;-83
2021/08/06 04:26:44;;;;;;;8.83;1.90;;;;;;;;;;5114649;28;20227;-84
2021/08/06 04:29:11;;;;;;;8.87;2.03;;;;;;;;;;5114005;28;20293;-84
2021/08/06 04:31:38;;;;;;;8.73;2.13;;;;;;;;;;5114314;28;20225;-84
2021/08/06 04:34:05;;;;;;;11.27;2.27;;;;;;;;;;5114370;28;20228;-84
2021/08/06 04:36:34;;;;;;;11.53;2.33;;;;;;;;;;5114012;28;20225;-84
2021/08/06 04:39:01;;;;;;;8.37;2.23;;;;;;;;;;5114291;28;20288;-84
2021/08/06 04:41:28;;;;;;;9.77;1.97;;;;;;;;;;5114339;28;20618;-84
2021/08/06 04:43:55;;;;;;;8.07;2.10;;;;;;;;;;5114021;28;20194;-84
2021/08/06 04:46:23;;;;;;;6.77;1.87;;;;;;;;;;5114285;28;20265;-84
2021/08/06 04:48:50;;;;;;;7.60;2.07;;;;;;;;;;5113929;27;20614;-84
2021/08/06 04:51:18;;;;;;;9.73;2.03;;;;;;;;;;5120918;27;20247;-84
2021/08/06 04:53:46;;;;;;;9.67;1.87;;;;;;;;;;5134655;27;20324;-84
2021/08/06 04:56:13;;;;;;;10.37;2.57;;;;;;;;;;5134529;27;20220;-83
2021/08/06 04:58:41;;;;;;;9.73;2.10;;;;;;;;;;5134502;27;20232;-84
2021/08/06 05:01:08;;;;;;;7.40;1.97;;;;;;;;;;5134240;27;20203;-83
2021/08/06 05:03:35;;;;;;;7.23;2.30;;;;;;;;;;5134558;27;20276;-84
2021/08/06 05:06:02;;;;;;;7.47;2.30;;;;;;;;;;5134479;27;20228;-83
2021/08/06 05:08:30;;;;;;;11.23;2.43;;;;;;;;;;5134410;27;20304;-83
2021/08/06 05:10:58;;;;;;;10.77;2.10;;;;;;;;;;5134574;27;20826;-81
2021/08/06 05:13:26;;;;;;;9.00;1.77;;;;;;;;;;5133196;27;20288;-78
2021/08/06 05:15:53;;;;;;;14.73;2.10;;;;;;;;;;5133831;27;20675;-77
2021/08/06 05:18:20;;;;;;;9.07;1.80;;;;;;;;;;5134034;27;20287;-78
2021/08/06 05:20:47;;;;;;;10.97;2.20;;;;;;;;;;5134017;27;20193;-78
2021/08/06 05:23:15;;;;;;;10.33;2.50;;;;;;;;;;5134281;27;20300;-77
2021/08/06 05:25:42;;;;;;;12.90;2.20;;;;;;;;;;5134091;27;20284;-78
2021/08/06 05:28:10;;;;;;;6.93;2.07;;;;;;;;;;5133760;27;20229;-78
2021/08/06 05:30:37;;;;;;;9.23;2.10;;;;;;;;;;5134032;27;20305;-78
2021/08/06 05:33:05;;;;;;;11.57;2.40;;;;;;;;;;5133772;27;20293;-78
2021/08/06 05:35:32;;;;;;;9.33;2.20;;;;;;;;;;5133728;27;20288;-78
2021/08/06 05:37:59;;;;;;;8.03;1.73;;;;;;;;;;5133482;27;20684;-78
2021/08/06 05:40:26;;;;;;;12.23;2.40;;;;;;;;;;5133662;27;20292;-77
2021/08/06 05:42:54;;;;;;;9.67;2.27;;;;;;;;;;5133395;27;20288;-77
2021/08/06 05:45:23;;;;;;;10.90;2.30;;;;;;;;;;5133564;27;20220;-77
2021/08/06 05:47:51;;;;;;;8.00;1.97;;;;;;;;;;5133015;27;20284;-78
2021/08/06 05:50:19;;;;;;;11.60;2.50;;;;;;;;;;5133686;27;20197;-78
2021/08/06 05:52:47;;;;;;;9.27;2.00;;;;;;;;;;5113410;27;20239;-77
2021/08/06 05:55:15;;;;;;;10.53;2.40;;;;;;;;;;5113242;28;20312;-78
2021/08/06 05:57:43;;;;;;;8.00;2.47;;;;;;;;;;5112883;28;20253;-77
2021/08/06 06:00:11;;;;;;;10.00;2.77;;;;;;;;;;5112990;28;20293;-77
2021/08/06 06:02:40;;;;;;;12.80;2.63;;;;;;;;;;5112813;28;20736;-77
2021/08/06 06:05:08;;;;;;;14.80;3.10;;;;;;;;;;5112540;28;20309;-78
2021/08/06 06:07:43;;;;;;;10.17;2.53;;;;;;;;;;5112628;28;20565;-78
2021/08/06 06:10:11;;;;;;;6.70;2.27;;;;;;;;;;5112804;28;20209;-77
2021/08/06 06:12:38;;;;;;;8.93;2.63;;;;;;;;;;5112315;28;20285;-78
2021/08/06 06:15:06;;;;;;;13.47;2.70;;;;;;;;;;5112399;28;20301;-78
2021/08/06 06:17:33;;;;;;;12.07;2.60;;;;;;;;;;5112339;28;20221;-78
2021/08/06 06:20:02;;;;;;;12.33;2.60;;;;;;;;;;5112563;28;20197;-78
2021/08/06 06:22:29;;;;;;;10.27;2.57;;;;;;;;;;5112433;28;20236;-77
2021/08/06 06:24:56;;;;;;;10.07;2.57;;;;;;;;;;5112131;28;20233;-78
2021/08/06 06:27:23;;;;;;;10.33;2.87;;;;;;;;;;5112671;28;20292;-78
2021/08/06 06:29:50;;;;;;;6.73;2.10;;;;;;;;;;5112602;28;20236;-78
2021/08/06 06:32:17;;;;;;;8.07;2.28;;;;;;;;;;5112556;28;20197;-78
2021/08/06 06:34:45;;;;;;;7.20;2.23;;;;;;;;;;5112754;28;20263;-78
2021/08/06 06:37:14;;;;;;;9.10;2.03;;;;;;;;;;5112504;28;20312;-78
2021/08/06 06:39:42;;;;;;;7.45;1.92;;;;;;;;;;5112223;28;20278;-78
2021/08/06 06:42:10;;;;;;;9.30;2.10;;;;;;;;;;5112316;28;20296;-78
2021/08/06 06:44:37;;;;;;;7.87;2.20;;;;;;;;;;5112242;28;20198;-78
2021/08/06 06:47:04;;;;;;;9.33;2.10;;;;;;;;;;5112487;28;20218;-78
2021/08/06 06:49:31;;;;;;;9.70;2.07;;;;;;;;;;5112601;28;20280;-78
2021/08/06 06:51:59;;;;;;;9.63;2.27;;;;;;;;;;5112557;28;20300;-78
2021/08/06 06:54:27;;;;;;;9.18;2.40;;;;;;;;;;5111542;28;20324;-78
2021/08/06 06:56:54;;;;;;;9.38;2.50;;;;;;;;;;5112562;28;20285;-78
2021/08/06 06:59:21;;;;;;;10.25;2.25;;;;;;;;;;5113034;28;20699;-78
2021/08/06 07:01:49;;;;;;;8.18;2.45;;;;;;;;;;5116048;28;20293;-78
2021/08/06 07:04:16;;;;;;;11.07;2.17;;;;;;;;;;5115693;28;20206;-78
2021/08/06 07:06:43;;;;;;;7.80;1.90;;;;;;;;;;5116216;28;20276;-78
2021/08/06 07:09:10;;;;;;;8.18;1.90;;;;;;;;;;5115798;28;20324;-78
2021/08/06 07:11:39;;;;;;;6.78;1.92;;;;;;;;;;5115878;28;20293;-78
2021/08/06 07:14:06;;;;;;;7.43;2.10;;;;;;;;;;5115916;28;20596;-77
2021/08/06 07:16:33;;;;;;;10.93;2.67;;;;;;;;;;5115754;28;20787;-78
2021/08/06 07:19:00;;;;;;;8.40;2.30;;;;;;;;;;5115706;28;20288;-79
2021/08/06 07:21:27;;;;;;;10.55;1.95;;;;;;;;;;5116157;28;20292;-78
2021/08/06 07:23:55;;;;;;;10.60;1.90;;;;;;;;;;5115620;28;20289;-78
2021/08/06 07:26:22;;;;;;;6.68;2.00;;;;;;;;;;5115815;27;20288;-78
2021/08/06 07:28:51;;;;;;;7.93;1.85;;;;;;;;;;5115709;28;20193;-78
2021/08/06 07:31:18;;;;;;;6.85;1.67;;;;;;;;;;5115429;28;20280;-79
2021/08/06 07:33:45;;;;;;;9.05;2.10;;;;;;;;;;5115801;28;20618;-78
2021/08/06 07:36:12;;;;;;;8.35;1.80;;;;;;;;;;5115797;28;20289;-78
2021/08/06 07:38:39;;;;;;;11.90;2.00;;;;;;;;;;5115188;28;20289;-78
2021/08/06 07:41:06;;;;;;;12.75;2.60;;;;;;;;;;5115513;28;20647;-78
2021/08/06 07:43:34;;;;;;;11.50;2.05;;;;;;;;;;5115294;28;20615;-78
2021/08/06 07:46:02;;;;;;;8.48;1.92;;;;;;;;;;5115467;28;20288;-78
2021/08/06 07:48:29;;;;;;;8.57;2.20;;;;;;;;;;5115554;28;20280;-79
2021/08/06 07:50:56;;;;;;;6.93;1.92;;;;;;;;;;5115330;28;20212;-77
2021/08/06 07:53:24;;;;;;;6.30;1.65;;;;;;;;;;5114781;28;20324;-78
2021/08/06 07:55:52;;;;;;;6.28;1.65;;;;;;;;;;5115680;28;20289;-79
2021/08/06 07:58:19;;;;;;;5.22;1.45;;;;;;;;;;5115098;28;20244;-78
2021/08/06 08:00:46;;;;;;;9.63;1.98;;;;;;;;;;5115276;27;20232;-79
2021/08/06 08:03:15;;;;;;;5.22;1.83;;;;;;;;;;5114882;27;20293;-79
2021/08/06 08:05:42;;;;;;;9.77;1.98;;;;;;;;;;5114997;28;20692;-79
2021/08/06 08:08:09;;;;;;;7.47;2.08;;;;;;;;;;5114885;28;20638;-79
2021/08/06 08:10:36;;;;;;;7.82;2.15;;;;;;;;;;5114468;28;20744;-78
2021/08/06 08:13:04;;;;;;;9.27;1.90;;;;;;;;;;5114841;28;20232;-78
2021/08/06 08:15:31;;;;;;;7.47;1.95;;;;;;;;;;5114757;28;20289;-78
2021/08/06 08:17:58;;;;;;;6.72;1.80;;;;;;;;;;5114774;28;20317;-80
2021/08/06 08:20:26;;;;;;;4.97;1.90;;;;;;;;;;5114871;28;20237;-79
2021/08/06 08:22:54;;;;;;;6.63;1.70;;;;;;;;;;5114144;28;20284;-79
2021/08/06 08:25:21;;;;;;;9.32;2.00;;;;;;;;;;5114691;27;20288;-78
2021/08/06 08:27:48;;;;;;;6.20;1.65;;;;;;;;;;5114484;28;20200;-79
2021/08/06 08:30:16;;;;;;;6.55;1.77;;;;;;;;;;5114426;28;20289;-78
2021/08/06 08:32:43;;;;;;;4.68;1.80;;;;;;;;;;5114255;28;20629;-78
2021/08/06 08:35:10;;;;;;;8.48;1.88;;;;;;;;;;5114513;28;20268;-78
2021/08/06 08:37:39;;;;;;;5.03;1.83;;;;;;;;;;5113948;28;20308;-78
2021/08/06 08:40:08;;;;;;;5.47;1.45;;;;;;;;;;5114381;28;20275;-78
2021/08/06 08:42:35;;;;;;;6.90;1.83;;;;;;;;;;5114334;28;20259;-78
2021/08/06 08:45:03;;;;;;;6.72;1.75;;;;;;;;;;5114929;28;20289;-78
2021/08/06 08:47:32;;;;;;;5.18;1.80;;;;;;;;;;5114412;28;20202;-79
2021/08/06 08:49:59;;;;;;;7.32;1.70;;;;;;;;;;5114327;28;20193;-78
2021/08/06 08:52:26;;;;;;;7.05;2.03;;;;;;;;;;5113765;28;20300;-78
2021/08/06 08:54:55;;;;;;;5.65;1.67;;;;;;;;;;5114094;28;20289;-79
2021/08/06 08:57:23;;;;;;;7.63;1.95;;;;;;;;;;5114113;27;20747;-79
2021/08/06 08:59:52;;;;;;;7.35;1.80;;;;;;;;;;5113839;28;20288;-79
2021/08/06 09:02:19;;;;;;;4.53;1.50;;;;;;;;;;5114287;28;20201;-79
2021/08/06 09:04:48;;;;;;;5.78;2.00;;;;;;;;;;5113637;28;20292;-79
2021/08/06 09:07:29;;;;;;;5.13;1.58;;;;;;;;;;5113938;28;20190;-79
2021/08/06 09:10:07;;;;;;;8.63;1.55;;;;;;;;;;5113988;28;20309;-79
2021/08/06 09:12:47;;;;;;;5.22;1.48;;;;;;;;;;5113841;28;20285;-78
2021/08/06 09:15:14;;;;;;;5.43;1.27;;;;;;;;;;5113845;28;20325;-79
2021/08/06 09:17:41;;;;;;;5.68;1.35;;;;;;;;;;5113483;28;20257;-78
2021/08/06 09:20:09;;;;;;;5.28;1.27;;;;;;;;;;5113503;28;20289;-78
2021/08/06 09:22:37;;;;;;;4.53;1.20;;;;;;;;;;5112943;27;20570;-78
2021/08/06 09:25:11;;;;;;;4.13;1.10;;;;;;;;;;5113209;28;20744;-78
2021/08/06 09:27:39;;;;;;;4.90;1.25;;;;;;;;;;5113465;28;20190;-78
2021/08/06 09:30:08;;;;;;;2.50;0.90;;;;;;;;;;5113909;28;20284;-78
2021/08/06 09:32:49;;;;;;;3.10;1.00;;;;;;;;;;5113343;28;20284;-78
2021/08/06 09:35:16;;;;;;;3.08;0.98;;;;;;;;;;5113144;28;20734;-79
2021/08/06 09:37:44;;;;;;;2.53;0.80;;;;;;;;;;5113403;28;20308;-78
2021/08/06 09:40:16;;;;;;;4.38;1.05;;;;;;;;;;5112876;28;20579;-78
2021/08/06 09:42:53;;;;;;;3.45;1.00;;;;;;;;;;5113420;28;20284;-78
2021/08/06 09:45:22;;;;;;;4.32;1.10;;;;;;;;;;5113128;28;20285;-78
2021/08/06 09:47:55;;;;;;;3.58;1.10;;;;;;;;;;5112917;28;20194;-78
2021/08/06 09:50:22;;;;;;;4.40;1.30;;;;;;;;;;5113276;28;20198;-78
2021/08/06 09:52:51;;;;;;;4.80;1.33;;;;;;;;;;5133100;27;20267;-78
2021/08/06 09:55:24;;;;;;;3.65;1.08;;;;;;;;;;5133590;27;20203;-78
2021/08/06 09:57:52;;;;;;;8.45;1.40;;;;;;;;;;5133208;27;20328;-78
2021/08/06 10:00:20;;;;;;;4.65;1.05;;;;;;;;;;5133805;27;20204;-78
2021/08/06 10:02:47;;;;;;;3.92;1.20;;;;;;;;;;5133641;27;20284;-79
2021/08/06 10:05:15;;;;;;;4.20;1.27;;;;;;;;;;5133989;27;20193;-78
2021/08/06 10:07:43;;;;;;;2.83;0.88;;;;;;;;;;5133268;27;20229;-78
2021/08/06 10:10:12;;;;;;;3.53;0.90;;;;;;;;;;5133483;27;20232;-78
2021/08/06 10:12:41;;;;;;;4.35;1.05;;;;;;;;;;5133639;27;20588;-78
2021/08/06 10:15:08;;;;;;;4.55;1.20;;;;;;;;;;5133583;27;20287;-78
2021/08/06 10:17:35;;;;;;;6.00;1.25;;;;;;;;;;5133224;27;20259;-78
2021/08/06 10:20:03;;;;;;;4.50;1.00;;;;;;;;;;5133207;27;20232;-78
2021/08/06 10:22:30;;;;;;;2.20;1.00;;;;;;;;;;5133205;27;20613;-77
2021/08/06 10:24:57;;;;;;;3.85;1.10;;;;;;;;;;5133443;27;20627;-78
2021/08/06 10:27:26;;;;;;;2.92;1.00;;;;;;;;;;5133368;27;20283;-78
2021/08/06 10:30:02;;;;;;;4.90;0.93;;;;;;;;;;5133218;27;20283;-78
2021/08/06 10:32:30;;;;;;;2.15;0.77;;;;;;;;;;5133056;27;20288;-79
2021/08/06 10:35:08;;;;;;;3.80;0.98;;;;;;;;;;5135296;27;20292;-78
2021/08/06 10:38:05;;;;;;;2.55;1.00;;;;;;;;;;5137262;27;20597;-78
2021/08/06 10:41:09;;;;;;;3.13;0.90;;;;;;;;;;5137237;27;20208;-78
2021/08/06 10:43:54;;;;;;;2.85;1.00;;;;;;;;;;5137188;27;20663;-79
2021/08/06 10:46:23;;;;;;;2.65;1.08;;;;;;;;;;5136938;27;20284;-78
2021/08/06 10:48:51;;;;;;;3.60;0.70;;;;;;;;;;5137091;27;20204;-79
2021/08/06 10:51:29;;;;;;;3.33;0.90;;;;;;;;;;5137147;27;20716;-78
2021/08/06 10:54:14;;;;;;;3.50;0.90;;;;;;;;;;5135468;27;20323;-78
2021/08/06 10:56:43;;;;;;;2.35;0.95;;;;;;;;;;5137168;27;20287;-78
2021/08/06 10:59:12;;;;;;;3.45;0.98;;;;;;;;;;5136612;27;20323;-78
2021/08/06 11:01:41;;;;;;;3.55;0.60;;;;;;;;;;5137072;27;20201;-78
2021/08/06 11:04:31;;;;;;;1.80;0.77;;;;;;;;;;5136884;27;20711;-78
2021/08/06 11:07:02;;;;;;;1.73;0.80;;;;;;;;;;5136662;27;20308;-78
2021/08/06 11:09:41;;;;;;;2.97;0.82;;;;;;;;;;5137049;27;20286;-78
2021/08/06 11:12:10;;;;;;;3.03;1.00;;;;;;;;;;5137093;27;20387;-78
2021/08/06 11:14:59;;;;;;;1.52;0.63;;;;;;;;;;5136561;27;20232;-79
2021/08/06 11:17:34;;;;;;;5.20;0.90;;;;;;;;;;5136844;27;20292;-78
2021/08/06 11:20:08;;;;;;;1.73;0.68;;;;;;;;;;5137124;27;20232;-78
2021/08/06 11:22:37;;;;;;;1.48;0.55;;;;;;;;;;5136767;27;20232;-78
2021/08/06 11:25:06;;;;;;;0.88;0.52;;;;;;;;;;5136719;27;20289;-79
2021/08/06 11:27:34;;;;;;;1.80;0.70;;;;;;;;;;5136681;27;20197;-79
2021/08/06 11:30:02;;;;;;;1.90;0.70;;;;;;;;;;5136077;27;20197;-79
2021/08/06 11:32:31;;;;;;;1.95;0.40;;;;;;;;;;5136594;27;20228;-79
2021/08/06 11:34:59;;;;;;;2.42;0.50;;;;;;;;;;5136248;27;20207;-78
2021/08/06 11:37:28;;;;;;;2.22;0.68;;;;;;;;;;5136247;27;20216;-79
2021/08/06 11:40:10;;;;;;;2.30;0.52;;;;;;;;;;5136164;27;20236;-79
2021/08/06 11:42:38;;;;;;;1.58;0.45;;;;;;;;;;5136638;27;20205;-79
2021/08/06 11:45:05;;;;;;;1.83;0.40;;;;;;;;;;5135919;27;20224;-79
2021/08/06 11:47:39;;;;;;;1.67;0.98;;;;;;;;;;5135267;27;20299;-79
2021/08/06 11:50:07;;;;;;;1.35;0.50;;;;;;;;;;5136202;27;20201;-79
2021/08/06 11:52:37;;;;;;;0.77;0.40;;;;;;;;;;5135789;27;20304;-78
2021/08/06 11:55:05;;;;;;;3.50;1.08;;;;;;;;;;5135726;27;20203;-79
2021/08/06 11:57:45;;;;;;;2.13;0.60;;;;;;;;;;5135817;27;20288;-79
2021/08/06 12:00:17;;;;;;;6.55;0.80;;;;;;;;;;5135350;27;20209;-79
2021/08/06 12:02:45;;;;;;;1.17;0.50;;;;;;;;;;5135835;27;20239;-79
2021/08/06 12:05:22;;;;;;;0.90;0.60;;;;;;;;;;5136034;27;20299;-79
2021/08/06 12:07:49;;;;;;;1.85;0.50;;;;;;;;;;5135344;27;20201;-79
2021/08/06 12:10:17;;;;;;;2.33;0.68;;;;;;;;;;5135602;27;21438;-79
2021/08/06 12:12:44;;;;;;;3.13;0.73;;;;;;;;;;5135897;27;20288;-78
2021/08/06 12:15:21;;;;;;;1.58;0.50;;;;;;;;;;5135634;27;20252;-79
2021/08/06 12:17:50;;;;;;;2.47;0.50;;;;;;;;;;5135367;27;20232;-79
2021/08/06 12:20:35;;;;;;;1.48;0.55;;;;;;;;;;5135271;27;20550;-79
2021/08/06 12:23:03;;;;;;;2.03;0.60;;;;;;;;;;5135637;27;20196;-78
2021/08/06 12:25:32;;;;;;;0.90;0.70;;;;;;;;;;5135338;27;20229;-78
2021/08/06 12:27:59;;;;;;;2.60;0.55;;;;;;;;;;5135034;27;20197;-79
2021/08/06 12:30:27;;;;;;;3.65;0.80;;;;;;;;;;5135296;27;20280;-79
2021/08/06 12:32:55;;;;;;;1.67;0.70;;;;;;;;;;5135447;27;20193;-79
2021/08/06 12:35:23;;;;;;;3.60;0.90;;;;;;;;;;5135256;27;20296;-79
2021/08/06 12:37:51;;;;;;;1.63;0.90;;;;;;;;;;5134688;27;20652;-79
2021/08/06 12:40:18;;;;;;;4.05;0.90;;;;;;;;;;5134612;27;20630;-79
2021/08/06 12:42:46;;;;;;;2.28;0.88;;;;;;;;;;5134695;27;20625;-79
2021/08/06 12:45:18;;;;;;;2.28;0.90;;;;;;;;;;5134913;27;20229;-79
2021/08/06 12:47:46;;;;;;;2.38;0.70;;;;;;;;;;5134343;27;20284;-79
2021/08/06 12:50:15;;;;;;;2.63;0.80;;;;;;;;;;5134525;27;20283;-79
2021/08/06 12:52:43;;;;;;;1.60;0.80;;;;;;;;;;5134332;27;20711;-79
2021/08/06 12:55:11;;;;;;;3.58;1.00;;;;;;;;;;5134399;27;20201;-79
2021/08/06 12:57:43;;;;;;;1.30;0.70;;;;;;;;;;5133957;27;20237;-79
2021/08/06 13:00:14;;;;;;;2.08;0.80;;;;;;;;;;5134259;27;20229;-80
2021/08/06 13:02:42;;;;;;;5.03;1.30;;;;;;;;;;5134513;27;20240;-79
2021/08/06 13:05:11;;;;;;;1.65;0.65;;;;;;;;;;5134254;27;20240;-79
2021/08/06 13:07:40;;;;;;;2.38;0.68;;;;;;;;;;5134805;27;20232;-79
2021/08/06 13:10:22;;;;;;;1.45;0.70;;;;;;;;;;5134096;27;20763;-79
2021/08/06 13:12:49;;;;;;;2.97;1.00;;;;;;;;;;5133751;27;20243;-79
2021/08/06 13:15:16;;;;;;;1.20;0.60;;;;;;;;;;5134274;27;20284;-79
2021/08/06 13:17:43;;;;;;;1.55;0.70;;;;;;;;;;5134094;27;20284;-79
2021/08/06 13:20:11;;;;;;;2.22;0.88;;;;;;;;;;5134037;27;20307;-79
2021/08/06 13:22:42;;;;;;;3.30;0.73;;;;;;;;;;5133849;27;20374;-79
2021/08/06 13:25:10;;;;;;;2.38;0.63;;;;;;;;;;5133761;27;20698;-79
2021/08/06 13:27:37;;;;;;;1.77;0.70;;;;;;;;;;5133873;27;20288;-79
2021/08/06 13:30:07;;;;;;;2.45;0.60;;;;;;;;;;5133933;27;20707;-79
2021/08/06 13:32:34;;;;;;;2.80;0.80;;;;;;;;;;5133672;27;20204;-79
2021/08/06 13:35:02;;;;;;;2.10;0.75;;;;;;;;;;5134025;27;20228;-79
2021/08/06 13:37:29;;;;;;;2.75;1.05;;;;;;;;;;5133502;27;20237;-79
2021/08/06 13:39:58;;;;;;;2.30;0.80;;;;;;;;;;5133203;27;20320;-78
2021/08/06 13:42:25;;;;;;;1.88;0.90;;;;;;;;;;5133822;27;20296;-78
2021/08/06 13:44:52;;;;;;;4.45;0.95;;;;;;;;;;5133699;27;20231;-79
2021/08/06 13:47:19;;;;;;;2.25;0.93;;;;;;;;;;5133226;27;20441;-79
2021/08/06 13:49:46;;;;;;;3.70;1.00;;;;;;;;;;5133644;27;20280;-79
2021/08/06 13:52:14;;;;;;;3.42;1.15;;;;;;;;;;5133409;27;20208;-78
2021/08/06 13:54:41;;;;;;;2.63;0.90;;;;;;;;;;5133075;27;20323;-78
2021/08/06 13:57:09;;;;;;;3.45;0.95;;;;;;;;;;5133525;27;20626;-79
2021/08/06 13:59:37;;;;;;;2.72;1.00;;;;;;;;;;5133570;27;20311;-79
2021/08/06 14:02:04;;;;;;;2.97;0.90;;;;;;;;;;5133546;27;20246;-79
2021/08/06 14:04:31;;;;;;;3.63;0.85;;;;;;;;;;5133109;27;20747;-79
2021/08/06 14:07:00;;;;;;;2.78;1.20;;;;;;;;;;5133515;27;20224;-79
2021/08/06 14:09:29;;;;;;;2.92;0.95;;;;;;;;;;5132478;27;20249;-79
2021/08/06 14:11:56;;;;;;;5.47;1.20;;;;;;;;;;5133403;27;20197;-79
2021/08/06 14:14:25;;;;;;;2.85;1.10;;;;;;;;;;5133327;27;20325;-78
2021/08/06 14:16:52;;;;;;;4.53;1.25;;;;;;;;;;5133355;27;20287;-79
2021/08/06 14:19:19;;;;;;;3.88;1.10;;;;;;;;;;5133036;27;20307;-79
2021/08/06 14:21:47;;;;;;;4.13;1.10;;;;;;;;;;5133389;27;20627;-79
2021/08/06 14:24:14;;;;;;;5.03;1.30;;;;;;;;;;5133215;27;20236;-79
2021/08/06 14:26:43;;;;;;;4.75;1.02;;;;;;;;;;5133105;27;20228;-77
2021/08/06 14:29:10;;;;;;;4.13;1.10;;;;;;;;;;5133122;27;20219;-78
2021/08/06 14:31:39;;;;;;;4.43;1.20;;;;;;;;;;5133221;27;20284;-79
2021/08/06 14:34:06;;;;;;;5.85;1.15;;;;;;;;;;5133202;27;20280;-79
2021/08/06 14:36:33;;;;;;;6.07;1.30;;;;;;;;;;5132881;27;20580;-79
2021/08/06 14:39:01;;;;;;;9.48;1.48;;;;;;;;;;5132979;27;20315;-78
2021/08/06 14:41:28;;;;;;;4.10;1.08;;;;;;;;;;5133349;27;20193;-78
2021/08/06 14:43:56;;;;;;;5.57;1.40;;;;;;;;;;5132885;27;20239;-78
2021/08/06 14:46:23;;;;;;;5.70;1.63;;;;;;;;;;5132775;27;20284;-78
2021/08/06 14:48:51;;;;;;;6.25;1.50;;;;;;;;;;5132829;27;20628;-79